createdAt,value
2023-03-10T00:00:12.801Z,16.43
2023-03-10T00:02:44.968Z,17.80
2023-03-10T00:05:11.456Z,18.33
2023-03-10T00:07:37.965Z,17.60
2023-03-10T00:10:04.839Z,20.30
2023-03-10T00:12:31.353Z,22.73
2023-03-10T00:14:57.816Z,21.93
2023-03-10T00:17:24.615Z,20.50
2023-03-10T00:19:51.083Z,19.10
2023-03-10T00:22:17.535Z,19.50
2023-03-10T00:24:44.009Z,16.60
2023-03-10T00:27:10.480Z,18.27
2023-03-10T00:29:37.091Z,22.93
2023-03-10T00:32:03.868Z,19.80
2023-03-10T00:34:30.301Z,21.30
2023-03-10T00:36:56.877Z,27.07
2023-03-10T00:39:23.436Z,26.27
2023-03-10T00:41:50.024Z,21.47
2023-03-10T00:44:16.545Z,22.17
2023-03-10T00:46:43.086Z,20.23
2023-03-10T00:49:14.877Z,25.40
2023-03-10T00:51:41.402Z,23.13
2023-03-10T00:54:07.836Z,23.87
2023-03-10T00:56:34.314Z,23.17
2023-03-10T00:59:01.264Z,28.50
2023-03-10T01:01:32.645Z,26.93
2023-03-10T01:04:01.540Z,26.80
2023-03-10T01:06:28.285Z,30.43
2023-03-10T01:08:54.849Z,27.83
2023-03-10T01:11:24.270Z,28.90
2023-03-10T01:13:51.206Z,27.83
2023-03-10T01:16:17.702Z,31.97
2023-03-10T01:18:45.137Z,30.40
2023-03-10T01:21:17.559Z,35.97
2023-03-10T01:23:44.083Z,33.13
2023-03-10T01:26:10.564Z,29.50
2023-03-10T01:28:37.124Z,28.20
2023-03-10T01:31:05.541Z,31.87
2023-03-10T01:33:32.596Z,36.50
2023-03-10T01:35:59.056Z,36.93
2023-03-10T01:38:25.561Z,37.00
2023-03-10T01:40:52.074Z,33.63
2023-03-10T01:43:22.103Z,36.03
2023-03-10T01:45:48.558Z,37.47
2023-03-10T01:48:16.775Z,38.33
2023-03-10T01:50:45.279Z,38.83
2023-03-10T01:53:13.319Z,38.37
2023-03-10T01:55:43.156Z,40.43
2023-03-10T01:58:10.840Z,37.37
2023-03-10T02:00:37.337Z,36.70
2023-03-10T02:03:19.964Z,41.07
2023-03-10T02:05:49.233Z,42.53
2023-03-10T02:08:17.183Z,39.13
2023-03-10T02:10:44.652Z,43.03
2023-03-10T02:13:11.254Z,38.80
2023-03-10T02:15:38.026Z,38.43
2023-03-10T02:18:06.098Z,42.23
2023-03-10T02:20:56.824Z,43.60
2023-03-10T02:23:28.185Z,45.60
2023-03-10T02:26:01.137Z,48.10
2023-03-10T02:28:27.887Z,40.23
2023-03-10T02:30:54.857Z,43.37
2023-03-10T02:33:24.989Z,39.53
2023-03-10T02:35:51.539Z,39.57
2023-03-10T02:38:18.092Z,40.83
2023-03-10T02:40:49.664Z,42.00
2023-03-10T02:43:20.467Z,45.43
2023-03-10T02:45:48.492Z,36.50
2023-03-10T02:48:20.860Z,37.40
2023-03-10T02:50:47.799Z,42.83
2023-03-10T02:53:18.050Z,44.70
2023-03-10T02:55:44.752Z,47.07
2023-03-10T02:58:11.963Z,42.83
2023-03-10T03:00:39.655Z,39.83
2023-03-10T03:03:07.495Z,41.03
2023-03-10T03:05:34.503Z,42.90
2023-03-10T03:08:01.049Z,41.70
2023-03-10T03:10:27.850Z,47.27
2023-03-10T03:12:56.184Z,45.73
2023-03-10T03:15:23.234Z,50.37
2023-03-10T03:17:50.014Z,43.87
2023-03-10T03:20:17.661Z,42.80
2023-03-10T03:22:45.448Z,40.33
2023-03-10T03:25:15.120Z,44.60
2023-03-10T03:27:42.533Z,49.70
2023-03-10T03:30:14.938Z,44.60
2023-03-10T03:32:41.726Z,45.83
2023-03-10T03:35:13.621Z,40.00
2023-03-10T03:37:40.124Z,44.97
2023-03-10T03:40:12.870Z,41.90
2023-03-10T03:42:43.875Z,46.03
2023-03-10T03:45:15.104Z,44.53
2023-03-10T03:47:41.735Z,47.10
2023-03-10T03:50:10.196Z,47.17
2023-03-10T03:52:36.758Z,45.33
2023-03-10T03:55:04.258Z,48.30
2023-03-10T03:57:30.847Z,48.17
2023-03-10T03:59:57.305Z,48.83
2023-03-10T04:02:23.937Z,49.37
2023-03-10T04:04:50.457Z,46.17
2023-03-10T04:07:17.121Z,49.23
2023-03-10T04:09:43.578Z,52.03
2023-03-10T04:12:10.461Z,52.90
2023-03-10T04:14:37.882Z,47.40
2023-03-10T04:17:05.308Z,50.07
2023-03-10T04:19:31.896Z,54.57
2023-03-10T04:21:58.379Z,48.90
2023-03-10T04:24:24.829Z,53.13
2023-03-10T04:26:51.409Z,47.27
2023-03-10T04:29:17.914Z,56.03
2023-03-10T04:31:50.524Z,57.93
2023-03-10T04:34:25.555Z,56.73
2023-03-10T04:36:51.990Z,59.43
2023-03-10T04:39:18.525Z,55.23
2023-03-10T04:41:44.999Z,65.63
2023-03-10T04:44:24.425Z,58.97
2023-03-10T04:46:56.553Z,58.93
2023-03-10T04:49:23.063Z,60.73
2023-03-10T04:51:49.549Z,57.83
2023-03-10T04:54:16.445Z,56.63
2023-03-10T04:56:43.010Z,58.10
2023-03-10T04:59:09.506Z,60.03
2023-03-10T05:01:36.098Z,55.13
2023-03-10T05:04:04.520Z,55.73
2023-03-10T05:06:31.394Z,61.80
2023-03-10T05:08:58.210Z,56.17
2023-03-10T05:11:24.676Z,59.40
2023-03-10T05:13:51.189Z,54.90
2023-03-10T05:16:20.237Z,54.47
2023-03-10T05:18:46.957Z,56.00
2023-03-10T05:21:13.780Z,57.47
2023-03-10T05:23:40.458Z,65.10
2023-03-10T05:26:09.050Z,52.07
2023-03-10T05:28:36.165Z,54.90
2023-03-10T05:31:11.327Z,55.43
2023-03-10T05:33:37.815Z,61.40
2023-03-10T05:36:08.843Z,61.30
2023-03-10T05:38:36.512Z,56.43
2023-03-10T05:41:06.818Z,62.87
2023-03-10T05:43:33.450Z,58.50
2023-03-10T05:46:00.359Z,57.00
2023-03-10T05:48:27.076Z,62.80
2023-03-10T05:51:05.800Z,59.73
2023-03-10T05:53:34.301Z,57.27
2023-03-10T05:56:00.869Z,65.20
2023-03-10T05:58:27.759Z,60.83
2023-03-10T06:00:54.488Z,58.67
2023-03-10T06:03:23.313Z,59.73
2023-03-10T06:05:50.321Z,58.83
2023-03-10T06:08:19.931Z,64.07
2023-03-10T06:10:46.448Z,60.10
2023-03-10T06:13:12.978Z,63.27
2023-03-10T06:15:39.504Z,61.13
2023-03-10T06:18:06.146Z,65.03
2023-03-10T06:20:32.676Z,61.40
2023-03-10T06:22:59.180Z,64.33
2023-03-10T06:25:25.650Z,67.13
2023-03-10T06:27:52.256Z,67.83
2023-03-10T06:30:18.946Z,62.00
2023-03-10T06:32:45.739Z,69.70
2023-03-10T06:35:13.963Z,70.60
2023-03-10T06:37:41.256Z,68.37
2023-03-10T06:40:10.084Z,68.40
2023-03-10T06:42:36.955Z,70.80
2023-03-10T06:45:04.091Z,73.37
2023-03-10T06:47:30.668Z,70.80
2023-03-10T06:49:57.440Z,75.17
2023-03-10T06:52:24.158Z,76.20
2023-03-10T06:54:50.763Z,71.73
2023-03-10T06:57:19.858Z,74.10
2023-03-10T06:59:47.306Z,73.93
2023-03-10T07:02:13.817Z,76.20
2023-03-10T07:04:40.554Z,76.13
2023-03-10T07:07:07.286Z,87.33
2023-03-10T07:09:33.896Z,74.63
2023-03-10T07:12:00.483Z,83.67
2023-03-10T07:14:27.032Z,78.23
2023-03-10T07:16:53.604Z,81.97
2023-03-10T07:19:20.920Z,82.67
2023-03-10T07:21:47.573Z,72.03
2023-03-10T07:24:14.675Z,76.17
2023-03-10T07:26:41.345Z,83.20
2023-03-10T07:29:07.921Z,82.73
2023-03-10T07:31:34.830Z,83.73
2023-03-10T07:34:02.105Z,78.13
2023-03-10T07:36:29.230Z,84.93
2023-03-10T07:38:56.598Z,77.07
2023-03-10T07:41:23.227Z,80.30
2023-03-10T07:43:53.881Z,75.43
2023-03-10T07:46:21.191Z,78.40
2023-03-10T07:48:48.198Z,83.47
2023-03-10T07:51:15.635Z,79.70
2023-03-10T07:53:42.417Z,76.60
2023-03-10T07:56:10.944Z,70.90
2023-03-10T07:58:37.942Z,72.20
2023-03-10T08:01:05.396Z,68.07
2023-03-10T08:03:33.970Z,78.03
2023-03-10T08:06:01.566Z,69.77
2023-03-10T08:08:28.506Z,65.80
2023-03-10T08:11:06.790Z,68.17
2023-03-10T08:13:33.687Z,75.93
2023-03-10T08:16:01.564Z,64.97
2023-03-10T08:18:29.639Z,70.40
2023-03-10T08:20:57.066Z,67.30
2023-03-10T08:23:24.508Z,68.17
2023-03-10T08:25:51.313Z,65.80
2023-03-10T08:28:17.880Z,65.37
2023-03-10T08:31:02.633Z,66.10
2023-03-10T08:33:30.717Z,69.17
2023-03-10T08:36:05.401Z,70.70
2023-03-10T08:38:32.496Z,69.50
2023-03-10T08:41:16.072Z,74.80
2023-03-10T08:43:43.323Z,71.83
2023-03-10T08:46:12.902Z,72.53
2023-03-10T08:48:42.681Z,73.27
2023-03-10T08:51:10.247Z,73.10
2023-03-10T08:53:37.916Z,71.83
2023-03-10T08:56:05.344Z,65.57
2023-03-10T08:58:32.619Z,81.17
2023-03-10T09:00:59.598Z,75.20
2023-03-10T09:03:26.904Z,77.33
2023-03-10T09:05:55.491Z,66.87
2023-03-10T09:08:22.148Z,64.70
2023-03-10T09:10:48.711Z,66.20
2023-03-10T09:13:16.255Z,65.47
2023-03-10T09:15:43.037Z,62.03
2023-03-10T09:18:11.286Z,61.90
2023-03-10T09:20:39.232Z,59.20
2023-03-10T09:23:06.615Z,59.87
2023-03-10T09:25:33.193Z,62.53
2023-03-10T09:28:00.108Z,58.57
2023-03-10T09:30:27.003Z,64.87
2023-03-10T09:32:54.223Z,59.00
2023-03-10T09:35:20.995Z,53.07
2023-03-10T09:37:47.628Z,56.97
2023-03-10T09:40:19.341Z,57.73
2023-03-10T09:42:47.756Z,57.47
2023-03-10T09:45:31.462Z,64.87
2023-03-10T09:48:19.454Z,59.90
2023-03-10T09:50:48.064Z,58.37
2023-03-10T09:53:44.460Z,66.67
2023-03-10T09:56:20.394Z,55.77
2023-03-10T09:58:50.272Z,53.63
2023-03-10T10:01:19.884Z,59.00
2023-03-10T10:03:52.953Z,67.23
2023-03-10T10:06:29.074Z,58.17
2023-03-10T10:09:05.048Z,56.87
2023-03-10T10:11:33.213Z,60.23
2023-03-10T10:14:30.605Z,48.37
2023-03-10T10:17:07.775Z,55.60
2023-03-10T10:19:36.950Z,67.63
2023-03-10T10:22:11.145Z,51.10
2023-03-10T10:24:38.572Z,50.90
2023-03-10T10:27:05.054Z,50.87
2023-03-10T10:29:36.542Z,58.80
2023-03-10T10:32:04.921Z,50.87
2023-03-10T10:34:32.201Z,46.30
2023-03-10T10:36:59.242Z,57.73
2023-03-10T10:39:32.334Z,55.67
2023-03-10T10:42:24.190Z,51.27
2023-03-10T10:45:16.410Z,48.37
2023-03-10T10:47:51.494Z,61.90
2023-03-10T10:50:27.759Z,51.23
2023-03-10T10:53:12.961Z,51.23
2023-03-10T10:55:40.604Z,50.07
2023-03-10T10:58:23.715Z,50.43
2023-03-10T11:00:58.964Z,52.37
2023-03-10T11:03:39.608Z,54.63
2023-03-10T11:06:21.316Z,48.43
2023-03-10T11:08:51.345Z,50.30
2023-03-10T11:11:23.396Z,43.23
2023-03-10T11:14:17.785Z,43.80
2023-03-10T11:17:16.340Z,43.37
2023-03-10T11:19:51.600Z,50.07
2023-03-10T11:22:23.725Z,40.80
2023-03-10T11:25:00.297Z,43.73
2023-03-10T11:28:13.274Z,39.23
2023-03-10T11:30:47.018Z,39.80
2023-03-10T11:33:20.883Z,38.83
2023-03-10T11:35:52.162Z,42.50
2023-03-10T11:38:35.082Z,43.00
2023-03-10T11:41:08.424Z,33.97
2023-03-10T11:43:39.227Z,33.87
2023-03-10T11:46:28.789Z,35.57
2023-03-10T11:48:57.708Z,33.73
2023-03-10T11:51:30.198Z,36.60
2023-03-10T11:54:03.871Z,37.53
2023-03-10T11:56:30.768Z,38.77
2023-03-10T11:59:07.006Z,42.30
2023-03-10T12:01:38.866Z,34.77
2023-03-10T12:04:12.691Z,37.80
2023-03-10T12:06:46.220Z,33.33
2023-03-10T12:09:27.912Z,37.97
2023-03-10T12:11:54.846Z,36.27
2023-03-10T12:14:21.607Z,35.77
2023-03-10T12:16:49.091Z,33.67
2023-03-10T12:19:16.253Z,29.87
2023-03-10T12:21:42.713Z,33.80
2023-03-10T12:24:58.169Z,25.10
2023-03-10T12:27:24.903Z,23.57
2023-03-10T12:29:51.367Z,23.57
2023-03-10T12:32:41.664Z,19.37
2023-03-10T12:35:28.878Z,22.13
2023-03-10T12:38:42.694Z,17.97
2023-03-10T12:41:10.028Z,17.10
2023-03-10T12:43:51.399Z,12.10
2023-03-10T12:46:39.768Z,11.33
2023-03-10T12:49:25.164Z,15.90
2023-03-10T12:52:00.154Z,14.27
2023-03-10T12:55:04.462Z,11.50
2023-03-10T12:57:36.836Z,11.57
2023-03-10T13:00:24.983Z,11.50
2023-03-10T13:02:55.937Z,12.80
2023-03-10T13:05:28.087Z,12.23
2023-03-10T13:07:57.910Z,12.37
2023-03-10T13:10:26.411Z,13.03
2023-03-10T13:13:03.683Z,11.33
2023-03-10T13:15:32.477Z,10.00
2023-03-10T13:18:20.707Z,12.10
2023-03-10T13:20:48.342Z,8.03
2023-03-10T13:23:29.846Z,12.93
2023-03-10T13:26:01.591Z,13.97
2023-03-10T13:28:32.057Z,9.73
2023-03-10T13:31:19.250Z,15.03
2023-03-10T13:33:53.372Z,11.50
2023-03-10T13:36:40.032Z,12.67
2023-03-10T13:39:17.645Z,12.17
2023-03-10T13:41:52.245Z,8.87
2023-03-10T13:44:26.890Z,12.70
2023-03-10T13:47:00.484Z,10.67
2023-03-10T13:49:32.596Z,11.73
2023-03-10T13:52:01.297Z,10.43
2023-03-10T13:54:28.911Z,10.17
2023-03-10T13:57:03.405Z,11.03
2023-03-10T13:59:32.564Z,7.90
2023-03-10T14:02:00.567Z,9.60
2023-03-10T14:04:47.093Z,10.20
2023-03-10T14:07:23.822Z,9.33
2023-03-10T14:10:18.505Z,11.10
2023-03-10T14:12:49.837Z,14.57
2023-03-10T14:15:19.430Z,12.30
2023-03-10T14:17:46.568Z,16.07
2023-03-10T14:20:31.411Z,17.30
2023-03-10T14:22:58.143Z,16.23
2023-03-10T14:25:25.372Z,11.70
2023-03-10T14:30:41.982Z,14.10
2023-03-10T14:33:13.407Z,17.23
2023-03-10T14:35:40.396Z,14.73
2023-03-10T14:38:07.118Z,12.17
2023-03-10T14:40:39.235Z,13.77
2023-03-10T14:43:05.988Z,12.33
2023-03-10T14:45:36.681Z,15.33
2023-03-10T14:48:15.105Z,10.73
2023-03-10T14:50:41.812Z,16.37
2023-03-10T14:53:13.333Z,14.33
2023-03-10T14:55:40.872Z,14.43
2023-03-10T14:58:08.205Z,16.50
2023-03-10T15:00:35.515Z,14.03
2023-03-10T15:03:01.994Z,16.87
2023-03-10T15:05:45.014Z,14.40
2023-03-10T15:08:14.117Z,14.30
2023-03-10T15:10:42.744Z,13.47
2023-03-10T15:13:13.456Z,14.30
2023-03-10T15:15:42.456Z,11.33
2023-03-10T15:18:13.465Z,9.57
2023-03-10T15:20:40.153Z,11.80
2023-03-10T15:23:07.038Z,13.20
2023-03-10T15:25:33.838Z,13.50
2023-03-10T15:28:00.404Z,15.73
2023-03-10T15:30:29.910Z,17.23
2023-03-10T15:32:56.828Z,15.40
2023-03-10T15:35:23.831Z,15.00
2023-03-10T15:37:51.358Z,17.97
2023-03-10T15:40:29.218Z,16.37
2023-03-10T15:42:57.504Z,17.00
2023-03-10T15:45:25.609Z,13.33
2023-03-10T15:47:52.352Z,17.50
2023-03-10T15:50:19.780Z,17.57
2023-03-10T15:52:51.677Z,15.37
2023-03-10T15:55:18.396Z,17.50
2023-03-10T15:57:47.978Z,13.43
2023-03-10T16:00:18.556Z,24.20
2023-03-10T16:02:45.852Z,24.80
2023-03-10T16:05:12.658Z,28.50
2023-03-10T16:07:39.479Z,26.27
2023-03-10T16:10:07.129Z,30.63
2023-03-10T16:12:33.865Z,26.17
2023-03-10T16:15:00.488Z,19.33
2023-03-10T16:17:29.284Z,26.40
2023-03-10T16:19:56.310Z,20.83
2023-03-10T16:22:23.280Z,21.07
2023-03-10T16:24:49.882Z,20.33
2023-03-10T16:27:16.451Z,18.83
2023-03-10T16:29:43.123Z,22.93
2023-03-10T16:32:10.019Z,23.20
2023-03-10T16:34:36.515Z,24.27
2023-03-10T16:37:03.011Z,26.37
2023-03-10T16:39:32.888Z,26.10
2023-03-10T16:42:00.006Z,23.47
2023-03-10T16:44:26.544Z,21.63
2023-03-10T16:46:53.225Z,22.97
2023-03-10T16:49:19.872Z,29.27
2023-03-10T16:51:47.744Z,25.90
2023-03-10T16:54:20.581Z,28.67
2023-03-10T16:56:49.203Z,34.17
2023-03-10T16:59:18.964Z,30.20
2023-03-10T17:01:45.881Z,31.47
2023-03-10T17:04:12.992Z,34.50
2023-03-10T17:06:40.072Z,30.07
2023-03-10T17:09:08.902Z,32.87
2023-03-10T17:11:45.171Z,33.23
2023-03-10T17:14:15.013Z,32.43
2023-03-10T17:16:43.460Z,29.37
2023-03-10T17:19:21.141Z,30.03
2023-03-10T17:21:49.439Z,33.87
2023-03-10T17:24:19.427Z,31.93
2023-03-10T17:26:46.898Z,30.53
2023-03-10T17:29:13.852Z,38.60
2023-03-10T17:31:40.680Z,32.67
2023-03-10T17:34:11.490Z,39.40
2023-03-10T17:36:38.150Z,36.97
2023-03-10T17:39:05.789Z,29.50
2023-03-10T17:41:34.049Z,36.60
2023-03-10T17:44:00.842Z,45.27
2023-03-10T17:46:29.854Z,42.47
2023-03-10T17:48:57.686Z,39.93
2023-03-10T17:51:29.833Z,44.90
2023-03-10T17:53:58.368Z,47.77
2023-03-10T17:56:25.840Z,43.87
2023-03-10T17:58:53.332Z,51.83
2023-03-10T18:01:27.156Z,49.60
2023-03-10T18:03:56.077Z,47.37
2023-03-10T18:06:24.925Z,63.30
2023-03-10T18:08:56.064Z,51.37
2023-03-10T18:11:23.792Z,46.50
2023-03-10T18:13:50.386Z,42.47
2023-03-10T18:16:28.789Z,43.60
2023-03-10T18:18:56.850Z,40.40
2023-03-10T18:21:23.895Z,35.73
2023-03-10T18:23:51.394Z,36.67
2023-03-10T18:26:20.682Z,37.17
2023-03-10T18:28:47.334Z,32.70
2023-03-10T18:31:25.862Z,36.60
2023-03-10T18:33:52.866Z,40.87
2023-03-10T18:36:20.902Z,38.93
2023-03-10T18:38:48.332Z,40.07
2023-03-10T18:41:18.772Z,36.97
2023-03-10T18:43:45.721Z,40.40
2023-03-10T18:46:12.716Z,36.17
2023-03-10T18:48:39.348Z,28.60
2023-03-10T18:51:06.260Z,29.23
2023-03-10T18:53:33.165Z,24.17
2023-03-10T18:56:00.111Z,30.70
2023-03-10T18:58:27.258Z,36.40
2023-03-10T19:00:54.030Z,28.40
2023-03-10T19:03:20.739Z,29.37
2023-03-10T19:05:53.001Z,35.60
2023-03-10T19:08:20.106Z,34.03
2023-03-10T19:10:55.011Z,34.83
2023-03-10T19:13:23.213Z,37.50
2023-03-10T19:15:49.932Z,36.23
2023-03-10T19:18:16.840Z,33.77
2023-03-10T19:20:43.865Z,29.47
2023-03-10T19:23:10.697Z,32.80
2023-03-10T19:25:37.354Z,30.83
2023-03-10T19:28:04.681Z,33.13
2023-03-10T19:30:34.019Z,35.13
2023-03-10T19:33:00.713Z,25.80
2023-03-10T19:35:27.462Z,31.47
2023-03-10T19:37:54.492Z,31.60
2023-03-10T19:40:21.592Z,35.67
2023-03-10T19:42:48.637Z,35.77
2023-03-10T19:45:17.571Z,38.37
2023-03-10T19:47:44.864Z,31.97
2023-03-10T19:50:15.191Z,29.23
2023-03-10T19:52:46.323Z,31.00
2023-03-10T19:55:19.416Z,26.63
2023-03-10T19:57:48.680Z,26.53
2023-03-10T20:00:19.101Z,37.40
2023-03-10T20:02:46.083Z,26.90
2023-03-10T20:05:19.731Z,30.10
2023-03-10T20:07:47.576Z,29.40
2023-03-10T20:10:17.061Z,33.60
2023-03-10T20:12:44.555Z,32.33
2023-03-10T20:15:11.312Z,29.80
2023-03-10T20:17:38.043Z,30.17
2023-03-10T20:20:10.496Z,27.03
2023-03-10T20:22:38.763Z,31.20
2023-03-10T20:25:06.830Z,31.03
2023-03-10T20:27:33.732Z,35.17
2023-03-10T20:30:00.331Z,39.70
2023-03-10T20:32:27.520Z,41.83
2023-03-10T20:34:54.353Z,41.57
2023-03-10T20:37:21.094Z,45.80
2023-03-10T20:39:47.793Z,35.07
2023-03-10T20:42:15.285Z,49.87
2023-03-10T20:44:45.636Z,40.17
2023-03-10T20:47:12.453Z,37.17
2023-03-10T20:49:39.024Z,36.83
2023-03-10T20:52:05.693Z,43.13
2023-03-10T20:54:32.303Z,40.60
2023-03-10T20:56:59.152Z,39.00
2023-03-10T20:59:25.765Z,40.63
2023-03-10T21:01:52.407Z,37.93
2023-03-10T21:04:20.107Z,37.70
2023-03-10T21:06:47.525Z,38.30
2023-03-10T21:09:14.900Z,34.63
2023-03-10T21:11:42.151Z,34.83
2023-03-10T21:14:08.701Z,38.30
2023-03-10T21:16:42.810Z,40.43
2023-03-10T21:19:10.057Z,32.27
2023-03-10T21:21:36.573Z,31.30
2023-03-10T21:24:04.420Z,30.80
2023-03-10T21:26:31.468Z,34.27
2023-03-10T21:29:00.024Z,35.10
2023-03-10T21:31:26.995Z,29.40
2023-03-10T21:33:53.821Z,28.30
2023-03-10T21:36:22.851Z,30.27
2023-03-10T21:38:50.175Z,24.47
2023-03-10T21:41:19.014Z,31.43
2023-03-10T21:43:45.580Z,25.93
2023-03-10T21:46:12.363Z,28.57
2023-03-10T21:48:38.887Z,30.27
2023-03-10T21:51:05.712Z,28.27
2023-03-10T21:53:32.303Z,31.30
2023-03-10T21:56:00.572Z,29.90
2023-03-10T21:58:27.393Z,33.60
2023-03-10T22:00:56.166Z,28.17
2023-03-10T22:03:22.912Z,30.13
2023-03-10T22:05:50.398Z,32.10
2023-03-10T22:08:16.841Z,32.67
2023-03-10T22:10:43.533Z,35.90
2023-03-10T22:13:10.051Z,33.73
2023-03-10T22:15:36.768Z,34.50
2023-03-10T22:18:03.688Z,31.13
2023-03-10T22:20:30.295Z,38.60
2023-03-10T22:22:57.248Z,39.17
2023-03-10T22:25:24.544Z,41.23
2023-03-10T22:27:53.712Z,39.27
2023-03-10T22:30:21.870Z,38.73
2023-03-10T22:32:48.668Z,39.43
2023-03-10T22:35:16.292Z,43.07
2023-03-10T22:37:43.197Z,43.00
2023-03-10T22:40:16.523Z,42.50
2023-03-10T22:42:43.556Z,43.53
2023-03-10T22:45:23.570Z,40.70
2023-03-10T22:47:52.427Z,44.63
2023-03-10T22:50:22.313Z,43.17
2023-03-10T22:52:48.845Z,42.13
2023-03-10T22:55:17.720Z,38.67
2023-03-10T22:57:44.457Z,43.60
2023-03-10T23:00:18.763Z,39.27
2023-03-10T23:02:49.214Z,45.60
2023-03-10T23:05:17.061Z,41.57
2023-03-10T23:07:44.248Z,42.77
2023-03-10T23:10:22.485Z,41.17
2023-03-10T23:12:49.702Z,39.23
2023-03-10T23:15:25.146Z,41.37
2023-03-10T23:17:52.219Z,38.90
2023-03-10T23:20:18.826Z,39.90
2023-03-10T23:22:46.350Z,44.73
2023-03-10T23:25:20.428Z,43.77
2023-03-10T23:27:46.936Z,39.97
2023-03-10T23:30:15.086Z,39.00
2023-03-10T23:32:45.960Z,38.97
2023-03-10T23:35:15.789Z,40.20
2023-03-10T23:37:42.497Z,40.23
2023-03-10T23:40:11.520Z,34.80
2023-03-10T23:42:38.393Z,39.73
2023-03-10T23:45:07.861Z,38.73
2023-03-10T23:47:35.499Z,44.37
2023-03-10T23:50:02.337Z,37.60
2023-03-10T23:52:28.949Z,40.47
2023-03-10T23:54:55.498Z,40.53
2023-03-10T23:57:21.958Z,40.40
2023-03-10T23:59:48.566Z,37.80
